Terminal Aerodrome Forecast
Issued by NWS

Home | Current Version | Previous Version | Text Only | Print | Product List | Glossary On
Versions: 1 2 3 4 5 6 7 8 9 10 11 12 13 14
000
FTUS45 KABQ 041100 RRA
TAFFMN
TAF
KFMN 041144Z 0412/0512 08006KT P6SM VCSH BKN090
      TEMPO 0413/0417 12006KT -SHRA BKN050
     FM041800 15010KT P6SM VCTS BKN060CB
      TEMPO 0420/0424 VRB15G25KT -TSRA OVC035CB
     FM050200 14007KT P6SM -SHRA OVC025=

USA.gov is the U.S. government's official web portal to all federal, state and local government web resources and services.